Time;durP1;ratioP1;P1;durP2;ratioP2;P2;SDS_P1;SDS_P2;PMS_P1;PMS_P2;Temp;Humidity;BMP_temperature;BMP_pressure;BME280_temperature;BME280_humidity;BME280_pressure;Samples;Min_cycle;Max_cycle;Signal;HPM_P1;HPM_P2
2022/07/25 00:06:31;;;;;;;5.47;2.10;;;;;;;;;;21046672;28;20257;-71
2022/07/25 00:16:56;;;;;;;2.58;1.90;;;;;;;;;;21063254;28;20253;-71
2022/07/25 00:26:58;;;;;;;2.50;2.17;;;;;;;;;;21121146;28;20219;-71
2022/07/25 00:37:00;;;;;;;4.03;2.20;;;;;;;;;;21064796;28;20763;-71
2022/07/25 00:47:02;;;;;;;2.85;2.15;;;;;;;;;;21018740;28;20277;-71
2022/07/25 00:57:04;;;;;;;2.28;1.77;;;;;;;;;;21058422;28;20222;-71
2022/07/25 01:07:07;;;;;;;2.95;2.15;;;;;;;;;;21134710;28;20751;-71
2022/07/25 01:17:08;;;;;;;4.45;2.08;;;;;;;;;;21115294;28;20762;-71
2022/07/25 01:27:10;;;;;;;3.33;2.13;;;;;;;;;;21099704;28;20217;-71
2022/07/25 01:37:12;;;;;;;3.20;2.10;;;;;;;;;;21060377;28;20219;-71
2022/07/25 01:47:15;;;;;;;2.72;2.00;;;;;;;;;;21030294;28;20283;-71
2022/07/25 01:57:17;;;;;;;3.05;2.35;;;;;;;;;;21055673;28;20221;-71
2022/07/25 02:07:19;;;;;;;3.05;2.10;;;;;;;;;;21273241;23;20340;-72
2022/07/25 02:17:21;;;;;;;2.80;2.20;;;;;;;;;;21332437;27;20201;-71
2022/07/25 02:27:22;;;;;;;2.80;2.17;;;;;;;;;;21274634;27;20217;-71
2022/07/25 02:37:25;;;;;;;2.70;2.20;;;;;;;;;;21291572;27;20227;-71
2022/07/25 02:47:26;;;;;;;4.03;2.40;;;;;;;;;;21305219;27;20975;-72
2022/07/25 02:57:28;;;;;;;4.07;2.88;;;;;;;;;;21239628;27;20699;-72
2022/07/25 03:07:30;;;;;;;2.45;1.90;;;;;;;;;;21309408;27;20243;-71
2022/07/25 03:17:32;;;;;;;4.65;2.15;;;;;;;;;;21318047;27;20621;-72
2022/07/25 03:27:33;;;;;;;2.55;2.10;;;;;;;;;;21297793;27;20340;-71
2022/07/25 03:37:35;;;;;;;2.60;2.15;;;;;;;;;;21292679;27;20222;-73
2022/07/25 03:47:37;;;;;;;7.18;2.85;;;;;;;;;;21297832;27;20222;-73
2022/07/25 03:57:39;;;;;;;3.78;2.60;;;24.20;94.90;;;;;;21295661;27;20203;-74
2022/07/25 04:07:41;;;;;;;12.75;3.50;;;;;;;;;;21317289;27;20218;-74
2022/07/25 04:17:42;;;;;;;5.82;2.45;;;;;;;;;;21306736;27;20198;-74
2022/07/25 04:27:44;;;;;;;3.35;2.13;;;;;;;;;;21323233;27;20701;-74
2022/07/25 04:37:46;;;;;;;3.63;2.58;;;;;;;;;;21303998;27;20640;-75
2022/07/25 04:47:47;;;;;;;3.38;2.00;;;;;;;;;;21271992;27;20214;-73
2022/07/25 04:57:49;;;;;;;3.25;2.35;;;;;;;;;;21270958;27;20688;-74
2022/07/25 05:08:08;;;;;;;2.10;1.83;;;;;;;;;;21334626;27;20217;-74
2022/07/25 05:18:10;;;;;;;2.80;2.30;;;;;;;;;;21305557;27;20565;-73
2022/07/25 05:28:13;;;;;;;4.57;2.88;;;;;;;;;;21286575;27;20586;-74
2022/07/25 05:38:17;;;;;;;2.65;2.28;;;;;;;;;;21320772;27;20216;-73
2022/07/25 05:48:19;;;;;;;3.03;2.58;;;;;;;;;;21314762;27;20315;-74
2022/07/25 05:58:21;;;;;;;5.55;2.70;;;;;;;;;;21311618;27;20257;-73
2022/07/25 06:08:23;;;;;;;3.95;2.33;;;;;;;;;;21302622;27;20219;-73
2022/07/25 06:18:25;;;;;;;2.78;2.40;;;;;;;;;;21306787;27;20222;-71
2022/07/25 06:28:28;;;;;;;3.15;2.35;;;;;;;;;;21283282;27;20228;-71
2022/07/25 06:38:30;;;;;;;3.83;2.20;;;;;;;;;;21294277;27;20757;-71
2022/07/25 06:48:32;;;;;;;3.13;1.83;;;;;;;;;;21292540;27;20208;-71
2022/07/25 06:58:34;;;;;;;3.70;2.35;;;;;;;;;;21279309;27;20216;-71
2022/07/25 07:08:36;;;;;;;2.30;1.90;;;26.10;99.90;;;;;;21320962;27;20218;-70
2022/07/25 07:18:38;;;;;;;3.13;2.13;;;;;;;;;;21317523;27;20234;-71
2022/07/25 07:28:40;;;;;;;3.28;2.10;;;;;;;;;;21284617;27;20345;-71
2022/07/25 07:38:43;;;;;;;4.18;2.15;;;;;;;;;;21326499;27;20204;-71
2022/07/25 07:48:45;;;;;;;2.75;1.73;;;;;;;;;;21325181;27;20216;-71
2022/07/25 07:58:47;;;;;;;3.50;1.83;;;;;;;;;;21298363;27;20683;-70
2022/07/25 08:08:53;;;;;;;2.38;1.85;;;;;;;;;;21290511;27;20238;-71
2022/07/25 08:19:01;;;;;;;2.78;2.22;;;;;;;;;;21239741;27;20258;-71
2022/07/25 08:29:03;;;;;;;2.42;1.60;;;;;;;;;;21243002;27;20371;-71
2022/07/25 08:39:05;;;;;;;3.55;1.80;;;;;;;;;;21319771;27;20220;-70
2022/07/25 08:49:07;;;;;;;2.42;1.80;;;28.90;90.00;;;;;;21334315;27;20221;-71
2022/07/25 08:59:09;;;;;;;3.20;1.70;;;;;;;;;;21298901;27;20186;-71
2022/07/25 09:09:11;;;;;;;5.25;2.03;;;;;;;;;;21257759;27;20213;-71
2022/07/25 09:19:17;;;;;;;2.00;1.60;;;;;;;;;;21290137;27;20274;-71
2022/07/25 09:29:20;;;;;;;3.85;1.80;;;;;;;;;;21313464;27;20752;-70
2022/07/25 09:39:51;;;;;;;2.55;1.83;;;30.40;85.00;;;;;;21290917;27;20193;-71
2022/07/25 09:49:53;;;;;;;2.50;1.92;;;;;;;;;;21288355;27;20227;-70
2022/07/25 09:59:55;;;;;;;4.60;2.00;;;;;;;;;;21286411;27;20233;-71
2022/07/25 10:09:57;;;;;;;3.17;1.90;;;;;;;;;;21288732;27;20271;-71
2022/07/25 10:20:00;;;;;;;2.97;1.90;;;;;;;;;;21299682;22;20238;-70
2022/07/25 10:30:02;;;;;;;2.65;1.90;;;31.00;88.50;;;;;;21248656;27;20219;-71
2022/07/25 10:40:04;;;;;;;2.22;1.55;;;31.50;81.60;;;;;;21255181;27;20207;-70
2022/07/25 10:50:10;;;;;;;4.10;1.75;;;;;;;;;;21267317;27;20314;-71
2022/07/25 11:00:27;;;;;;;3.90;1.80;;;;;;;;;;21263311;27;20264;-71
2022/07/25 11:10:29;;;;;;;3.42;1.80;;;;;;;;;;21246483;27;20212;-71
2022/07/25 11:20:31;;;;;;;2.83;1.80;;;;;;;;;;21219619;27;20234;-71
2022/07/25 11:30:33;;;;;;;4.13;1.90;;;;;;;;;;21267021;27;20218;-73
2022/07/25 11:40:42;;;;;;;4.15;2.10;;;;;;;;;;21253307;27;20214;-70
2022/07/25 11:50:44;;;;;;;2.22;1.77;;;32.40;84.50;;;;;;21250584;27;20279;-71
2022/07/25 12:00:47;;;;;;;2.53;1.70;;;34.80;88.50;;;;;;21263591;27;20573;-72
2022/07/25 12:10:51;;;;;;;3.92;1.92;;;;;;;;;;21257557;27;20645;-71
2022/07/25 12:20:52;;;;;;;2.05;1.33;;;;;;;;;;21270871;27;20214;-72
2022/07/25 12:30:54;;;;;;;2.20;1.40;;;;;;;;;;21268202;27;20283;-71
2022/07/25 12:40:57;;;;;;;3.13;1.40;;;;;;;;;;21286989;27;20211;-72
2022/07/25 12:50:59;;;;;;;2.05;1.48;;;;;;;;;;21251294;27;20276;-72
2022/07/25 13:01:01;;;;;;;5.90;1.80;;;;;;;;;;21249271;27;20255;-72
2022/07/25 13:11:03;;;;;;;4.78;2.05;;;;;;;;;;21253665;27;20244;-71
2022/07/25 13:21:06;;;;;;;3.53;1.50;;;;;;;;;;21283914;27;20778;-71
2022/07/25 13:31:08;;;;;;;2.17;1.40;;;;;;;;;;21235304;27;20267;-71
2022/07/25 13:41:10;;;;;;;4.65;1.50;;;31.90;80.80;;;;;;21261120;27;20211;-70
2022/07/25 13:51:12;;;;;;;2.15;1.42;;;;;;;;;;21255550;27;20746;-70
2022/07/25 14:01:14;;;;;;;3.45;1.73;;;;;;;;;;21293599;27;20563;-71
2022/07/25 14:11:16;;;;;;;3.05;1.90;;;;;;;;;;21224930;27;20215;-71
2022/07/25 14:21:18;;;;;;;2.72;1.85;;;;;;;;;;21276568;27;20690;-70
2022/07/25 14:31:20;;;;;;;2.47;1.90;;;32.30;92.90;;;;;;21221418;27;20603;-71
2022/07/25 14:41:22;;;;;;;2.42;1.85;;;;;;;;;;21275451;27;20745;-71
2022/07/25 14:51:24;;;;;;;2.28;1.80;;;;;;;;;;21230786;27;20214;-71
2022/07/25 15:01:26;;;;;;;2.25;1.70;;;;;;;;;;21239103;27;20215;-71
2022/07/25 15:11:28;;;;;;;4.72;1.33;;;;;;;;;;21260077;27;20362;-70
2022/07/25 15:21:30;;;;;;;2.97;1.85;;;;;;;;;;21269107;27;20227;-71
2022/07/25 15:31:31;;;;;;;1.80;1.38;;;;;;;;;;21241734;27;20223;-72
2022/07/25 15:41:33;;;;;;;2.97;1.60;;;33.40;79.90;;;;;;21232135;27;20642;-72
2022/07/25 15:51:35;;;;;;;2.60;1.50;;;;;;;;;;21255158;27;20701;-71
2022/07/25 16:01:37;;;;;;;2.10;1.48;;;;;;;;;;21232958;27;20220;-70
2022/07/25 16:11:39;;;;;;;2.33;1.45;;;;;;;;;;21203937;27;20267;-68
2022/07/25 16:21:42;;;;;;;3.63;1.50;;;;;;;;;;21232194;27;20709;-72
2022/07/25 16:31:43;;;;;;;2.70;1.20;;;;;;;;;;21258210;27;20240;-69
2022/07/25 16:41:46;;;;;;;2.83;1.40;;;;;;;;;;21254094;27;20211;-69
2022/07/25 16:51:47;;;;;;;2.42;1.45;;;31.50;73.10;;;;;;21245161;27;20600;-69
2022/07/25 17:01:49;;;;;;;2.65;1.02;;;;;;;;;;21127538;23;20780;-74
2022/07/25 17:11:52;;;;;;;3.60;0.95;;;;;;;;;;21160898;28;20722;-75
2022/07/25 17:21:53;;;;;;;0.90;0.50;;;;;;;;;;21126764;28;20216;-75
2022/07/25 17:31:55;;;;;;;1.52;0.68;;;;;;;;;;21123491;28;20216;-74
2022/07/25 17:41:57;;;;;;;1.92;0.50;;;;;;;;;;21137287;28;20721;-75
2022/07/25 17:51:58;;;;;;;1.70;0.60;;;;;;;;;;21145041;28;20216;-75
2022/07/25 18:02:01;;;;;;;1.27;0.50;;;;;;;;;;21117039;28;20224;-75
2022/07/25 18:12:04;;;;;;;1.10;0.50;;;;;;;;;;21145167;28;20273;-75
2022/07/25 18:22:06;;;;;;;0.47;0.40;;;;;;;;;;21139046;28;20699;-75
2022/07/25 18:32:08;;;;;;;0.73;0.40;;;;;;;;;;21143859;28;20220;-77
2022/07/25 18:42:09;;;;;;;2.25;0.70;;;;;;;;;;21146659;28;20269;-76
2022/07/25 18:52:11;;;;;;;2.17;0.60;;;;;;;;;;21112023;28;20570;-78
2022/07/25 19:02:13;;;;;;;1.00;0.38;;;;;;;;;;21148985;28;20216;-78
2022/07/25 19:12:15;;;;;;;0.80;0.40;;;;;;;;;;21155419;28;20284;-77
2022/07/25 19:22:17;;;;;;;0.82;0.50;;;;;;;;;;21156966;28;20640;-77
2022/07/25 19:32:21;;;;;;;1.60;0.50;;;;;;;;;;21124813;28;20853;-78
2022/07/25 19:42:22;;;;;;;1.02;0.40;;;;;;;;;;21125284;28;20238;-77
2022/07/25 19:52:24;;;;;;;0.65;0.30;;;;;;;;;;21124730;28;20227;-77
2022/07/25 20:02:26;;;;;;;0.65;0.30;;;;;;;;;;21124883;28;20231;-77
2022/07/25 20:12:28;;;;;;;0.57;0.30;;;;;;;;;;21123176;28;20699;-77
2022/07/25 20:22:34;;;;;;;0.22;0.20;;;;;;;;;;21134275;28;20339;-77
2022/07/25 20:32:36;;;;;;;1.77;0.47;;;;;;;;;;21126358;28;20220;-77
2022/07/25 20:42:38;;;;;;;0.77;0.30;;;;;;;;;;21137467;28;20212;-77
2022/07/25 20:52:40;;;;;;;0.30;0.22;;;;;;;;;;21137207;28;20220;-77
2022/07/25 21:02:41;;;;;;;1.10;0.30;;;;;;;;;;21123225;28;20230;-78
2022/07/25 21:12:46;;;;;;;1.80;0.35;;;;;;;;;;21135192;28;20569;-76
2022/07/25 21:22:48;;;;;;;1.27;0.35;;;27.90;87.30;;;;;;21146717;28;20627;-77
2022/07/25 21:32:50;;;;;;;0.82;0.38;;;;;;;;;;21144617;28;20582;-77
2022/07/25 21:42:51;;;;;;;0.40;0.30;;;;;;;;;;21155059;28;20219;-77
2022/07/25 21:52:53;;;;;;;0.60;0.40;;;;;;;;;;21164152;28;20283;-77
2022/07/25 22:02:55;;;;;;;2.40;0.40;;;;;;;;;;21129055;28;20224;-77
2022/07/25 22:12:57;;;;;;;0.43;0.30;;;;;;;;;;21144315;28;20218;-77
2022/07/25 22:23:01;;;;;;;2.60;0.30;;;;;;;;;;21143818;28;20456;-77
2022/07/25 22:33:03;;;;;;;0.63;0.35;;;;;;;;;;21041946;28;20273;-76
2022/07/25 22:43:04;;;;;;;0.47;0.30;;;;;;;;;;21060813;28;20308;-78
2022/07/25 22:53:06;;;;;;;1.15;0.50;;;;;;;;;;21106355;28;20271;-78
2022/07/25 23:03:08;;;;;;;1.58;0.40;;;;;;;;;;21158941;28;20259;-78
2022/07/25 23:13:10;;;;;;;1.35;0.50;;;;;;;;;;21158477;28;20248;-76
2022/07/25 23:23:11;;;;;;;1.63;0.32;;;27.30;81.90;;;;;;21140082;28;20219;-77
2022/07/25 23:33:13;;;;;;;0.85;0.40;;;;;;;;;;21169824;28;20214;-77
2022/07/25 23:43:15;;;;;;;0.90;0.45;;;;;;;;;;21157185;28;20214;-78
2022/07/25 23:53:17;;;;;;;1.55;0.40;;;;;;;;;;21149704;28;20222;-76
